Friday, October 19, 2018, 9:55 PM GMT
Back to Local

CWZQ, Grand Etang, N. S.

Location: , , Canada Lat: 46.55
Local Time: 9:55 PM GMT (21:55 GMT) Lon: -61.05
Time Zone: GMT Elev: 42 ft

Show me the last for .
Show Coded

Time T Td Feel RH Dir Speed Gust Alt SLP Vis Weather Sky Remarks
2018-10-19 21:40 40 30 29 67 280° 20 25 - - 0 None
2018-10-19 21:20 40 30 28 67 280° 21 28 - - 0 None
2018-10-19 21:00 39 29 27 64 280° 25 32 - 30.01 0 Peak wind: 34 mph (30 kts) from 280° at 18 min
2018-10-19 20:40 40 29 27 64 280° 25 33 - - 0 None
2018-10-19 20:20 40 30 28 67 280° 26 35 - - 0 None
2018-10-19 20:00 39 30 27 68 290° 24 31 - 29.99 0 Peak wind: 31 mph (27 kts) from 290° at 15 min
2018-10-19 19:40 39 29 28 66 290° 23 29 - - 0 None
2018-10-19 19:20 39 27 27 61 290° 25 31 - - 0 None
2018-10-19 19:00 41 29 29 62 280° 26 33 - 29.98 0 Peak wind: 33 mph (29 kts) from 280° at 52 min
2018-10-19 18:40 39 29 27 67 290° 25 32 - - 0 None
2018-10-19 18:20 39 29 27 66 280° 25 33 - - 0 None
2018-10-19 18:00 39 29 26 69 290° 26 35 - 29.96 0 Peak wind: 36 mph (32 kts) from 280° at 01 min
2018-10-19 17:40 39 31 26 71 290° 26 33 - - 0 None
2018-10-19 17:20 39 31 26 73 280° 26 35 - - 0 None
2018-10-19 17:00 39 31 27 73 280° 25 31 - 29.95 0 Peak wind: 35 mph (31 kts) from 290° at 47 min
2018-10-19 16:40 39 31 26 71 280° 26 33 - - 0 None
2018-10-19 16:20 38 31 26 73 290° 26 33 - - 0 None
2018-10-19 16:00 38 30 26 71 290° 23 31 - 29.94 0 Peak wind: 35 mph (31 kts) from 280° at 07 min
2018-10-19 15:40 39 31 27 70 290° 25 31 - - 0 None
2018-10-19 15:20 39 30 27 69 290° 25 33 - - 0 None
2018-10-19 15:00 39 29 27 67 290° 28 37 - 29.93 0 Peak wind: 36 mph (32 kts) from 280° at 59 min
2018-10-19 14:40 39 30 26 70 300° 28 35 - - 0 None
2018-10-19 14:20 39 31 26 72 300° 28 35 - - 0 None
2018-10-19 14:00 39 31 26 74 300° 25 33 - 29.91 0 Peak wind: 39 mph (34 kts) from 280° at 36 min
2018-10-19 13:40 39 31 25 74 290° 28 39 - - 0 None
2018-10-19 13:20 38 29 26 69 300° 26 35 - - 0 None
2018-10-19 13:00 38 29 26 68 300° 26 33 - 29.90 0 Peak wind: 39 mph (34 kts) from 290° at 20 min
2018-10-19 12:40 38 30 25 70 300° 28 35 - - 0 None
2018-10-19 12:20 37 29 22 74 310° 30 39 - - 0 None
2018-10-19 12:00 39 29 25 69 300° 31 40 - 29.89 0 Peak wind: 43 mph (38 kts) from 290° at 11 min
2018-10-19 11:40 39 31 25 74 290° 31 39 - - 0 None
2018-10-19 11:20 37 31 22 78 300° 31 44 - - 0 None
2018-10-19 11:00 37 31 22 79 300° 31 38 - 29.86 0 Peak wind: 43 mph (38 kts) from 300° at 08 min
2018-10-19 10:40 39 31 25 74 290° 32 41 - - 0 None
2018-10-19 10:20 38 31 24 76 300° 35 40 - - 0 None
2018-10-19 10:00 39 33 25 79 300° 33 45 - 29.83 0 Peak wind: 44 mph (39 kts) from 300° at 57 min
2018-10-19 09:40 39 32 25 75 290° 35 41 - - 0 None
2018-10-19 09:20 39 31 25 72 290° 33 43 - - 0 None
2018-10-19 09:00 39 31 25 73 290° 33 43 - 29.80 0 Peak wind: 43 mph (38 kts) from 290° at 32 min
2018-10-19 08:40 39 31 25 73 300° 36 44 - - 0 None
2018-10-19 08:20 39 31 26 70 300° 33 43 - - 0 None
2018-10-19 08:00 40 32 26 73 300° 33 43 - 29.77 0 Peak wind: 44 mph (39 kts) from 310° at 02 min
2018-10-19 06:40 40 33 27 75 300° 35 41 - - 0 None
2018-10-19 06:20 39 32 26 74 300° 35 44 - - 0 None
2018-10-19 06:00 40 33 26 76 300° 36 46 - 29.72 0 Peak wind: 49 mph (43 kts) from 300° at 16 min
2018-10-19 05:40 40 33 26 77 300° 36 47 - - 0 None
2018-10-19 05:20 40 33 26 76 300° 37 49 - - 0 None
2018-10-19 05:00 41 33 27 73 300° 35 46 - 29.71 0 Peak wind: 49 mph (43 kts) from 300° at 29 min
2018-10-19 04:40 38 32 24 76 300° 36 48 - - 0 None
2018-10-19 04:20 41 33 27 74 310° 37 45 - - 0 None
2018-10-19 04:00 41 31 27 68 300° 37 47 - 29.69 0 Peak wind: 49 mph (43 kts) from 310° at 13 min
2018-10-19 03:40 41 33 27 74 300° 38 47 - - 0 None
2018-10-19 03:20 41 35 27 77 310° 39 49 - - 0 None
2018-10-19 03:00 41 34 27 76 310° 38 47 - 29.67 0 Peak wind: 51 mph (45 kts) from 320° at 09 min
2018-10-19 02:40 41 34 28 75 310° 38 47 - - 0 None
2018-10-19 02:20 42 35 28 78 310° 40 51 - - 0 None
2018-10-19 02:00 41 36 28 80 300° 39 48 - 29.65 0 Peak wind: 54 mph (47 kts) from 310° at 11 min
2018-10-19 01:40 41 35 28 78 310° 40 48 - - 0 None
2018-10-19 01:20 41 36 26 83 310° 43 54 - - 0 None
2018-10-19 01:00 40 38 26 93 310° 41 52 - 29.62 0 Peak wind: 58 mph (51 kts) from 310° at 17 min
2018-10-19 00:40 40 38 25 93 300° 44 56 - - 0 None
2018-10-19 00:20 41 38 26 91 310° 45 59 - - 0 None
2018-10-19 00:00 40 39 26 95 300° 44 58 - 29.58 0 Peak wind: 57 mph (50 kts) from 300° at 59 min
2018-10-18 23:40 41 38 27 90 310° 41 53 - - 0 None
2018-10-18 23:20 41 39 26 95 300° 44 58 - - 0 None
2018-10-18 23:00 41 40 26 95 300° 43 56 - 29.55 0 Peak wind: 57 mph (50 kts) from 310° at 17 min
2018-10-18 22:40 40 38 26 93 310° 40 53 - - 0 None
2018-10-18 22:20 41 39 27 91 300° 43 58 - - 0 None
2018-10-18 22:00 40 38 26 91 310° 40 49 - 29.52 0 Peak wind: 55 mph (48 kts) from 320° at 47 min

Support USWX by starting your Amazon purchase here.